Date,TemperatureHighF,TemperatureAvgF,TemperatureLowF,DewpointHighF,DewpointAvgF,DewpointLowF,HumidityHigh,HumidityAvg,HumidityLow,PressureMaxIn,PressureMinIn,WindSpeedMaxMPH,WindSpeedAvgMPH,GustSpeedMaxMPH,PrecipitationSumIn
2013-3-1,48,39,29,30,27,25,89,64,41,0.00,40.00,5,2,65,0.00
2013-3-2,45,39,28,29,24,18,80,57,43,0.00,40.00,4,1,15,0.00
2013-3-3,50,38,28,22,19,15,71,48,32,0.00,40.00,5,3,32,0.00
2013-3-4,51,36,25,17,13,10,60,40,19,0.00,40.00,8,3,109,0.00
2013-3-5,52,41,31,43,28,14,98,65,27,0.00,40.00,6,2,14,0.58
2013-3-6,40,37,34,39,34,29,98,90,65,0.00,40.00,12,7,29,0.44
2013-3-7,49,42,32,32,27,23,77,58,45,0.00,40.00,6,4,20,0.03
2013-3-8,55,41,26,27,25,21,97,57,30,0.00,40.00,8,4,25,0.00
2013-3-9,64,47,33,28,24,21,77,45,19,0.00,40.00,4,2,12,0.00
2013-3-10,68,52,36,32,21,15,63,34,13,0.00,40.00,5,2,20,0.00
2013-3-11,71,55,40,49,43,32,98,68,41,0.00,40.00,8,3,16,0.00
2013-3-12,69,60,49,64,52,31,99,76,46,0.00,40.00,6,4,18,1.02
2013-3-13,57,46,32,33,26,16,82,47,25,0.00,40.00,7,4,26,0.64
2013-3-14,52,40,27,20,16,14,69,41,23,0.00,40.00,7,3,21,0.00
2013-3-15,63,46,28,31,22,13,64,42,23,0.00,40.00,4,1,107,0.00
2013-3-16,78,59,42,58,42,31,99,58,30,0.00,40.00,6,1,25,0.02
2013-3-17,54,46,37,54,42,35,99,87,71,0.00,40.00,4,2,13,0.03
2013-3-18,42,39,35,42,38,34,99,98,98,0.00,40.00,3,2,12,0.13
2013-3-19,70,50,38,45,31,7,99,62,15,0.00,40.00,6,3,20,0.10
2013-3-20,59,47,37,20,11,5,49,24,15,0.00,40.00,5,2,21,0.01
2013-3-21,45,37,29,32,19,7,86,50,23,0.00,40.00,8,3,26,0.00
2013-3-22,54,37,21,14,11,5,73,38,15,0.00,40.00,5,2,17,0.00
2013-3-23,59,44,33,28,21,12,71,43,22,0.00,40.00,4,1,13,0.00
2013-3-24,40,37,33,38,33,27,98,87,62,0.00,40.00,6,2,18,0.74
2013-3-25,48,38,33,36,30,22,98,76,42,0.00,40.00,8,3,57,0.05
2013-3-26,49,40,30,32,27,23,84,62,41,0.00,40.00,6,2,16,0.02
2013-3-27,52,41,31,27,23,18,78,52,28,0.00,40.00,8,4,133,0.00
2013-3-28,56,51,39,23,22,17,50,32,24,0.00,40.00,7,4,33,0.00
2013-3-29,63,48,32,27,24,22,72,44,22,0.00,40.00,5,2,38,0.00
2013-3-30,69,53,37,33,28,24,70,42,20,0.00,40.00,6,2,175,0.00
2013-3-31,68,55,46,58,48,33,99,80,50,0.00,40.00,5,2,15,0.45